Briefing drone pour Montmelian

Rechercher une autre localisation

Conditions de vol :


Nous sommes le : Dimanche 24 octobre 2021
Il est 19:37 UTC (21:37 LT)

Lever de soleil : 05:37 UTC (07:37 LT)
Coucher de soleil : 17:01 UTC (19:01 LT)


Warning: min(): Array must contain at least one element in /homepages/6/d509196549/htdocs/briefdrone/includes/function/metar/metar.php on line 1265

Météo

L'essentiel des conditions de vol

VIGILANCE MÉTÉO FRANCE - Savoie (73)
Pas de vigilances particulieres
METAR de LFLB
LFLB 241930Z AUTO 00000KT 9999 NCD 06/05 Q1024

Date d'émission: 24/10/2021
Heure d'émission: 19:30 UTC
Vent: Calme
Visibilité horizontale: > 10 km
Température: 6 °C
Point de rosée: 5 °C
Humidité: 93%
Pression (QNH): 1024 hPa
TAF de LFLB
LFLB 241900Z 2419/2515 CNL= LFLS 241900Z 2419/2515 CNL

Conditions prévues :

Heure d'émission : Bulletin éffectué le 24 à 19:00 UTC
Prévision : Valide du 24 a 19:00 UTC au 25 a 15:00 UTC
Nuages : à 0ft (0 m)
à 0ft (0 m)
à 0ft (0 m)
à 0ft (0 m)
WEBCAM POUR MONTMELIAN

Réglementation

Voler en sécurité

CARTES AERONAUTIQUE 1/500.000
CARTES VAC (LFLB)
SUP AIP




Chargement des AIP...
NOTAM (MONTMELIAN + Terrain à proximité / FIR )




Chargement des NOTAMS...
CONTACT PREFECTURE 73


Avertissement : Les données mises à disposition sont indicatives. Oxygène Drone ne pourra être tenu responsable de dégâts causés aux biens et aux personnes.